Time;durP1;ratioP1;P1;durP2;ratioP2;P2;SDS_P1;SDS_P2;PMS_P1;PMS_P2;Temp;Humidity;BMP_temperature;BMP_pressure;BME280_temperature;BME280_humidity;BME280_pressure;Samples;Min_cycle;Max_cycle;Signal;HPM_P1;HPM_P2
2022/11/16 00:01:27;;;;;;;9.85;7.47;;;;;;;12.30;100.00;99847.56;5023791;28;20053;-67
2022/11/16 00:03:56;;;;;;;11.43;8.60;;;;;;;12.32;100.00;99856.09;5010524;28;20060;-66
2022/11/16 00:06:23;;;;;;;9.90;7.80;;;;;;;12.27;100.00;99850.56;5018063;28;20057;-66
2022/11/16 00:11:38;;;;;;;11.13;8.85;;;;;;;12.34;100.00;99846.19;5008475;28;20392;-66
2022/11/16 00:14:05;;;;;;;11.18;7.50;;;;;;;12.37;100.00;99845.03;5020356;28;20042;-66
2022/11/16 00:16:32;;;;;;;11.45;8.90;;;;;;;12.38;100.00;99851.91;5025620;28;20061;-66
2022/11/16 00:19:02;;;;;;;8.68;6.47;;;;;;;12.43;100.00;99853.00;5013614;28;20057;-66
2022/11/16 00:25:17;;;;;;;13.00;7.90;;;;;;;12.39;100.00;99846.47;5005291;28;20714;-66
2022/11/16 00:27:43;;;;;;;13.07;9.20;;;;;;;12.36;100.00;99838.94;5018761;28;20053;-66
2022/11/16 00:30:10;;;;;;;12.52;9.23;;;;;;;12.34;100.00;99840.13;5019155;28;20512;-67
2022/11/16 00:32:37;;;;;;;12.48;8.55;;;;;;;12.31;100.00;99833.44;5016987;28;20449;-66
2022/11/16 00:35:03;;;;;;;10.18;7.85;;;;;;;12.37;100.00;99829.25;5019641;28;20045;-66
2022/11/16 00:37:30;;;;;;;11.45;8.98;;;;;;;12.32;100.00;99839.50;5013855;28;20052;-67
2022/11/16 00:39:56;;;;;;;12.77;8.80;;;;;;;12.33;100.00;99831.44;5011777;28;20052;-66
2022/11/16 00:42:23;;;;;;;10.73;8.43;;;;;;;12.38;100.00;99821.16;5017603;28;20102;-66
2022/11/16 00:44:49;;;;;;;13.40;9.48;;;;;;;12.33;100.00;99820.91;5020468;28;20068;-66
2022/11/16 00:47:15;;;;;;;12.52;9.05;;;;;;;12.34;100.00;99822.53;5017079;28;20049;-66
2022/11/16 00:49:42;;;;;;;11.38;9.27;;;;;;;12.31;100.00;99824.72;5018902;28;20044;-66
2022/11/16 00:52:08;;;;;;;12.25;9.95;;;;;;;12.28;100.00;99833.78;5015328;28;20057;-66
2022/11/16 00:54:34;;;;;;;13.00;9.38;;;;;;;12.26;100.00;99831.34;5002851;28;20084;-66
2022/11/16 00:57:01;;;;;;;12.30;9.43;;;;;;;12.26;100.00;99825.25;5015944;28;20048;-66
2022/11/16 00:59:27;;;;;;;11.95;8.98;;;;;;;12.31;100.00;99822.06;5013828;28;20410;-66
2022/11/16 01:01:54;;;;;;;13.32;10.50;;;;;;;12.29;100.00;99824.91;5018557;28;20248;-66
2022/11/16 01:04:20;;;;;;;11.63;9.50;;;;;;;12.31;100.00;99814.19;5030075;28;20109;-66
2022/11/16 01:06:46;;;;;;;12.75;10.07;;;;;;;12.31;100.00;99815.03;5018617;28;20048;-66
2022/11/16 01:09:13;;;;;;;12.95;8.55;;;;;;;12.30;100.00;99812.56;5025432;28;20049;-66
2022/11/16 01:14:24;;;;;;;12.98;9.98;;;;;;;12.33;100.00;99812.19;5020228;28;20045;-66
2022/11/16 01:16:51;;;;;;;13.68;10.48;;;;;;;12.33;100.00;99822.72;5018251;28;20054;-67
2022/11/16 01:19:17;;;;;;;15.50;10.68;;;;;;;12.35;100.00;99815.44;5016014;28;20056;-66
2022/11/16 01:21:44;;;;;;;14.45;9.77;;;;;;;12.32;100.00;99806.13;5019606;28;20045;-66
2022/11/16 01:24:10;;;;;;;13.65;10.32;;;;;;;12.29;100.00;99803.03;5023018;28;20048;-66
2022/11/16 01:26:36;;;;;;;13.30;9.63;;;;;;;12.31;100.00;99803.66;5018723;28;20516;-66
2022/11/16 01:29:03;;;;;;;13.40;9.98;;;;;;;12.30;100.00;99804.69;5011487;28;20727;-67
2022/11/16 01:31:29;;;;;;;14.88;11.25;;;;;;;12.30;100.00;99812.56;5018996;28;20494;-67
2022/11/16 01:33:56;;;;;;;13.18;10.05;;;;;;;12.20;100.00;99818.91;5017001;28;20049;-66
2022/11/16 01:36:22;;;;;;;14.50;10.57;;;;;;;12.18;100.00;99830.63;5029908;28;20061;-67
2022/11/16 01:38:49;;;;;;;15.43;11.60;;;;;;;12.07;100.00;99827.44;5000367;28;20054;-66
2022/11/16 01:41:19;;;;;;;15.80;10.95;;;;;;;12.10;100.00;99826.25;5023219;28;20049;-66
2022/11/16 01:43:52;;;;;;;14.93;11.40;;;;;;;12.09;100.00;99824.63;5033796;28;20045;-66
2022/11/16 01:46:20;;;;;;;13.55;10.23;;;;;;;12.02;100.00;99821.91;5013991;28;21356;-67
2022/11/16 01:48:49;;;;;;;16.80;10.82;;;;;;;12.12;100.00;99818.19;5027723;28;20045;-66
2022/11/16 01:51:16;;;;;;;16.58;10.82;;;;;;;12.15;100.00;99795.00;5013062;28;20081;-66
2022/11/16 01:53:43;;;;;;;11.20;8.90;;;;;;;12.17;100.00;99782.50;5021025;28;20057;-66
2022/11/16 01:56:09;;;;;;;12.43;9.15;;;;;;;12.20;100.00;99776.03;5016599;28;20050;-66
2022/11/16 01:58:36;;;;;;;13.73;9.73;;;;;;;12.22;100.00;99774.84;5028432;28;20544;-66
2022/11/16 02:01:02;;;;;;;9.57;8.02;;;;;;;12.24;100.00;99767.59;5015535;28;20052;-66
2022/11/16 02:03:29;;;;;;;9.40;7.93;;;;;;;12.35;100.00;99773.38;5013153;28;20073;-66
2022/11/16 02:06:20;;;;;;;10.98;9.05;;;;;;;12.33;100.00;99784.09;5020279;28;20418;-67
2022/11/16 02:12:12;;;;;;;11.25;8.95;;;;;;;12.32;100.00;99774.56;5012082;28;20049;-66
2022/11/16 02:14:55;;;;;;;9.52;7.57;;;;;;;12.27;100.00;99769.88;5012680;28;20111;-66
2022/11/16 02:17:33;;;;;;;10.10;6.70;;;;;;;12.33;100.00;99768.34;5019141;28;20482;-66
2022/11/16 02:20:08;;;;;;;9.73;6.55;;;;;;;12.35;100.00;99773.38;5013396;28;20052;-66
2022/11/16 02:22:36;;;;;;;9.90;7.20;;;;;;;12.26;100.00;99765.59;5009312;28;20070;-66
2022/11/16 02:25:11;;;;;;;9.07;6.70;;;;;;;12.37;100.00;99759.06;5016542;28;20072;-66
2022/11/16 02:28:19;;;;;;;10.82;8.02;;;;;;;12.36;100.00;99752.16;5023503;28;20084;-66
2022/11/16 02:30:49;;;;;;;10.50;7.55;;;;;;;12.35;100.00;99758.44;5011689;28;20517;-66
2022/11/16 02:33:20;;;;;;;10.57;7.97;;;;;;;12.32;100.00;99758.00;5005931;28;20068;-66
2022/11/16 02:35:50;;;;;;;11.73;8.35;;;;;;;12.29;100.00;99756.56;5010733;28;20076;-66
2022/11/16 02:38:22;;;;;;;10.95;8.73;;;;;;;12.32;100.00;99758.78;5014843;28;20054;-66
2022/11/16 02:40:57;;;;;;;10.73;8.30;;;;;;;12.29;100.00;99751.28;5015166;28;20095;-66
2022/11/16 02:43:35;;;;;;;10.27;7.85;;;;;;;12.29;100.00;99764.44;5019382;28;20506;-65
2022/11/16 02:46:07;;;;;;;10.80;7.82;;;;;;;12.25;100.00;99757.88;5025798;28;20053;-66
2022/11/16 02:48:38;;;;;;;10.57;8.43;;;;;;;12.23;100.00;99759.88;5013395;28;20057;-66
2022/11/16 02:51:06;;;;;;;10.13;7.93;;;;;;;12.23;100.00;99754.63;5026284;28;20053;-66
2022/11/16 02:53:39;;;;;;;9.68;8.07;;;;;;;12.21;100.00;99754.84;5012637;28;20524;-66
2022/11/16 02:56:05;;;;;;;10.32;8.13;;;;;;;12.20;100.00;99745.31;5019696;28;20469;-66
2022/11/16 02:58:32;;;;;;;9.95;7.68;;;;;;;12.21;100.00;99748.75;5018384;28;20796;-66
2022/11/16 03:01:04;;;;;;;11.63;8.32;;;;;;;12.24;100.00;99745.75;5021026;28;20486;-66
2022/11/16 03:03:44;;;;;;;9.50;7.40;;;;;;;12.26;100.00;99747.19;5025614;28;20057;-66
2022/11/16 03:06:17;;;;;;;9.80;7.75;;;;;;;12.26;100.00;99749.81;5009262;28;20057;-66
2022/11/16 03:08:53;;;;;;;10.82;8.40;;;;;;;12.20;100.00;99750.56;5021937;28;21218;-66
2022/11/16 03:14:11;;;;;;;11.52;8.77;;;;;;;12.25;100.00;99742.13;5010142;28;20123;-66
2022/11/16 03:16:41;;;;;;;10.90;8.88;;;;;;;12.24;100.00;99740.50;5007354;28;20053;-67
2022/11/16 03:19:12;;;;;;;9.88;8.15;;;;;;;12.20;100.00;99742.66;5022180;28;20068;-66
2022/11/16 03:21:46;;;;;;;11.73;8.32;;;;;;;12.24;100.00;99740.50;5008553;28;20048;-66
2022/11/16 03:24:13;;;;;;;12.23;8.98;;;;;;;12.30;100.00;99736.31;5023499;28;20064;-66
2022/11/16 03:27:02;;;;;;;11.95;8.35;;;;;;;12.37;100.00;99737.22;5017351;28;20053;-66
2022/11/16 03:29:32;;;;;;;11.55;8.98;;;;;;;12.32;100.00;99737.75;5007063;28;20053;-66
2022/11/16 03:32:09;;;;;;;10.02;8.10;;;;;;;12.29;100.00;99735.50;5018495;28;20060;-66
2022/11/16 03:34:38;;;;;;;12.05;9.02;;;;;;;12.29;100.00;99732.88;5005226;28;20054;-66
2022/11/16 03:37:05;;;;;;;16.65;9.38;;;;;;;12.22;100.00;99732.78;5018289;28;20060;-67
2022/11/16 03:39:36;;;;;;;11.85;9.30;;;;;;;12.24;100.00;99724.72;5019360;28;20078;-66
2022/11/16 03:42:09;;;;;;;14.98;10.18;;;;;;;12.23;100.00;99733.59;5014883;28;20862;-66
2022/11/16 03:44:37;;;;;;;12.80;9.77;;;;;;;12.18;100.00;99728.09;5017213;28;20049;-66
2022/11/16 03:47:03;;;;;;;12.20;9.60;;;;;;;12.16;100.00;99728.25;5024005;28;20053;-66
2022/11/16 03:49:30;;;;;;;13.90;9.77;;;;;;;12.18;100.00;99736.78;5024989;28;20571;-65
2022/11/16 03:51:57;;;;;;;12.93;9.32;;;;;;;12.21;100.00;99740.84;5015339;28;20050;-66
2022/11/16 03:54:24;;;;;;;12.57;9.52;;;;;;;12.14;100.00;99732.91;5028731;28;20221;-65
2022/11/16 03:56:50;;;;;;;12.38;9.38;;;;;;;12.12;100.00;99736.72;5004425;28;20061;-65
2022/11/16 03:59:16;;;;;;;14.95;9.90;;;;;;;12.14;100.00;99737.34;5015929;28;20049;-65
2022/11/16 04:01:43;;;;;;;13.02;9.82;;;;;;;12.08;100.00;99738.88;5022200;28;20045;-65
2022/11/16 04:24:10;;;;;;;11.50;9.23;;;;;;;12.16;100.00;99744.03;5034922;28;20056;-66
2022/11/16 04:26:13;;;;;;;12.02;9.88;;;;;;;11.82;100.00;99776.91;5018275;28;20048;-65
2022/11/16 04:28:40;;;;;;;11.85;9.70;;;;;;;11.82;100.00;99778.72;5017646;28;20077;-66
2022/11/16 04:39:22;;;;;;;11.18;9.75;;;;;;;11.78;100.00;99770.38;5023134;28;20057;-66
2022/11/16 04:47:20;;;;;;;12.30;9.93;;;;;;;11.81;100.00;99785.78;5012178;28;20536;-65
2022/11/16 04:49:46;;;;;;;11.18;9.13;;;;;;;11.81;100.00;99777.09;5019297;28;20122;-65
2022/11/16 04:52:12;;;;;;;11.30;9.70;;;;;;;11.81;100.00;99783.16;5012415;28;20407;-66
2022/11/16 04:54:39;;;;;;;13.60;10.07;;;;;;;11.84;100.00;99787.25;5010855;28;20053;-66
2022/11/16 04:57:05;;;;;;;12.45;9.57;;;;;;;11.88;100.00;99785.91;5017555;28;20059;-65
2022/11/16 04:59:31;;;;;;;12.75;9.57;;;;;;;11.85;100.00;99788.88;4998268;28;20062;-65
2022/11/16 05:02:06;;;;;;;12.27;9.60;;;;;;;11.82;100.00;99790.06;5020454;28;20049;-66
2022/11/16 05:04:37;;;;;;;12.05;8.38;;;;;;;11.88;100.00;99797.22;5013526;28;20445;-66
2022/11/16 05:07:11;;;;;;;13.88;10.45;;;;;;;11.87;100.00;99806.06;5011635;28;20485;-66
2022/11/16 05:09:42;;;;;;;13.27;10.25;;;;;;;11.83;100.00;99804.00;5023202;28;20057;-66
2022/11/16 05:12:14;;;;;;;16.10;10.75;;;;;;;11.83;100.00;99801.38;5018245;28;20053;-66
2022/11/16 05:14:41;;;;;;;12.18;10.30;;;;;;;11.83;100.00;99806.63;5016172;28;20403;-66
2022/11/16 05:17:08;;;;;;;13.27;10.07;;;;;;;11.79;100.00;99811.41;5013744;28;20103;-65
2022/11/16 05:22:21;;;;;;;14.30;10.27;;;;;;;11.78;100.00;99799.28;5015148;28;20057;-66
2022/11/16 05:24:47;;;;;;;13.55;9.05;;;;;;;11.76;100.00;99803.06;5017781;28;20061;-66
2022/11/16 05:27:15;;;;;;;11.63;8.80;;;;;;;11.75;100.00;99806.72;5028058;28;20053;-67
2022/11/16 05:29:42;;;;;;;11.07;8.27;;;;;;;11.68;100.00;99806.59;5010982;28;20049;-67
2022/11/16 05:32:10;;;;;;;12.02;7.65;;;;;;;11.66;100.00;99817.28;5020567;28;20251;-67
2022/11/16 05:34:37;;;;;;;11.80;8.57;;;;;;;11.57;100.00;99812.28;5004773;28;20065;-66
2022/11/16 05:37:04;;;;;;;10.25;7.10;;;;;;;11.53;100.00;99813.66;5015510;28;20049;-67
2022/11/16 05:39:30;;;;;;;7.47;5.85;;;;;;;11.46;100.00;99824.81;5020729;28;20045;-67
2022/11/16 05:41:57;;;;;;;9.77;5.97;;;;;;;11.47;100.00;99828.28;5018928;28;20454;-66
2022/11/16 05:44:23;;;;;;;8.43;6.05;;;;;;;11.52;100.00;99830.38;5023376;28;20052;-67
2022/11/16 05:46:50;;;;;;;8.15;6.50;;;;;;;11.52;100.00;99833.00;5007640;28;20053;-66
2022/11/16 05:49:17;;;;;;;7.13;5.50;;;;;;;11.50;100.00;99835.81;5022427;28;20053;-66
2022/11/16 05:51:45;;;;;;;7.35;5.53;;;;;;;11.56;100.00;99845.59;5019130;28;20054;-67
2022/11/16 05:54:13;;;;;;;8.02;5.45;;;;;;;11.50;100.00;99838.44;5020506;28;20049;-66
2022/11/16 05:56:39;;;;;;;;;;;;;;;11.54;100.00;99847.59;5002345;28;20057;-66
2022/11/16 05:59:06;;;;;;;6.85;4.80;;;;;;;11.41;100.00;99842.94;5023891;28;20044;-67
2022/11/16 06:01:38;;;;;;;6.35;4.80;;;;;;;11.39;100.00;99852.00;5011652;28;20054;-67
2022/11/16 06:04:04;;;;;;;6.90;4.93;;;;;;;11.36;100.00;99850.50;5010839;28;20049;-67
2022/11/16 06:06:31;;;;;;;6.50;4.95;;;;;;;11.35;100.00;99848.06;5025524;28;20061;-67
2022/11/16 06:08:57;;;;;;;7.38;4.80;;;;;;;11.33;100.00;99855.28;5017303;28;20057;-66
2022/11/16 06:11:24;;;;;;;8.25;4.90;;;;;;;11.33;100.00;99845.63;5015953;28;20049;-67
2022/11/16 06:13:50;;;;;;;10.57;4.72;;;;;;;11.34;100.00;99843.81;5005185;28;20539;-66
2022/11/16 06:16:17;;;;;;;9.75;3.70;;;;;;;11.24;100.00;99842.22;5015237;28;20124;-67
2022/11/16 06:18:45;;;;;;;5.25;3.75;;;;;;;11.27;100.00;99846.31;5022606;28;20054;-66
2022/11/16 06:21:14;;;;;;;6.53;3.60;;;;;;;11.27;100.00;99834.00;5005587;28;20053;-66
2022/11/16 06:23:40;;;;;;;6.88;3.67;;;;;;;11.22;100.00;99835.53;5020078;28;20053;-67
2022/11/16 06:26:07;;;;;;;7.47;2.90;;;;;;;11.22;100.00;99828.47;5007840;28;20103;-66
2022/11/16 06:28:33;;;;;;;8.00;2.90;;;;;;;11.13;100.00;99837.38;5021668;28;20057;-66
2022/11/16 06:31:01;;;;;;;5.20;3.00;;;;;;;11.14;100.00;99846.91;5010690;28;20065;-66
2022/11/16 06:33:27;;;;;;;4.97;3.00;;;;;;;11.11;100.00;99849.84;5021317;28;20410;-66
2022/11/16 06:35:59;;;;;;;6.82;3.08;;;;;;;11.04;100.00;99851.56;5018587;28;20049;-66
2022/11/16 06:38:26;;;;;;;5.95;2.75;;;;;;;10.99;100.00;99854.69;5001682;28;20437;-66
2022/11/16 06:40:56;;;;;;;8.75;3.00;;;;;;;11.04;100.00;99862.06;5011071;28;20060;-66
2022/11/16 06:43:24;;;;;;;7.63;3.20;;;;;;;10.96;100.00;99869.97;5013701;28;20486;-66
2022/11/16 06:45:52;;;;;;;4.13;2.53;;;;;;;10.94;100.00;99871.94;5011551;28;20107;-66
2022/11/16 06:48:19;;;;;;;4.80;2.95;;;;;;;10.87;100.00;99877.88;5002303;28;20061;-66
2022/11/16 06:50:50;;;;;;;5.60;2.90;;;;;;;10.84;100.00;99875.59;5024213;28;20053;-66
2022/11/16 06:53:18;;;;;;;5.32;2.58;;;;;;;10.73;100.00;99883.03;5017773;28;20056;-66
2022/11/16 06:56:03;;;;;;;4.00;2.05;;;;;;;10.69;100.00;99877.31;5008964;28;20123;-66
2022/11/16 06:58:30;;;;;;;4.65;2.63;;;;;;;10.65;100.00;99881.25;5012630;28;20046;-66
2022/11/16 07:01:05;;;;;;;5.80;2.38;;;;;;;10.60;100.00;99883.56;5016924;28;20168;-66
2022/11/16 07:03:31;;;;;;;7.57;2.60;;;;;;;10.48;100.00;99889.16;5018972;28;20902;-66
2022/11/16 07:05:58;;;;;;;5.55;2.20;;;;;;;10.45;100.00;99892.13;5006824;28;20050;-66
2022/11/16 07:08:24;;;;;;;14.02;3.33;;;;;;;10.40;100.00;99896.25;5019793;28;20069;-66
2022/11/16 07:10:50;;;;;;;5.00;2.53;;;;;;;10.32;100.00;99897.06;5008042;28;20053;-66
2022/11/16 07:13:17;;;;;;;7.55;2.40;;;;;;;10.27;100.00;99897.56;5007035;28;20056;-66
2022/11/16 07:15:43;;;;;;;5.85;2.20;;;;;;;10.16;100.00;99897.88;5018737;28;20160;-66
2022/11/16 07:18:09;;;;;;;6.90;2.20;;;;;;;10.18;100.00;99898.53;5004055;28;20049;-66
2022/11/16 07:20:37;;;;;;;3.67;2.08;;;;;;;10.18;100.00;99906.41;5020016;28;20045;-66
2022/11/16 07:23:04;;;;;;;8.20;2.33;;;;;;;10.13;100.00;99910.50;5014911;28;20057;-66
2022/11/16 07:25:34;;;;;;;5.25;2.08;;;;;;;10.14;100.00;99918.22;5011005;28;20576;-66
2022/11/16 07:28:00;;;;;;;10.48;2.92;;;;;;;10.09;100.00;99913.47;5003022;28;20080;-66
2022/11/16 07:30:27;;;;;;;4.93;1.98;;;;;;;10.05;100.00;99920.00;5019150;28;20054;-66
2022/11/16 07:32:57;;;;;;;7.70;2.10;;;;;;;10.10;100.00;99927.38;5014168;28;20108;-66
2022/11/16 07:35:24;;;;;;;6.22;1.98;;;;;;;10.04;100.00;99928.03;5002649;28;20057;-66
2022/11/16 07:37:50;;;;;;;9.82;2.47;;;;;;;10.08;100.00;99927.53;5008103;28;20100;-66
2022/11/16 07:40:16;;;;;;;8.48;2.13;;;;;;;10.05;100.00;99933.09;5001547;28;20284;-66
2022/11/16 07:42:44;;;;;;;7.88;2.40;;;;;;;10.07;100.00;99932.94;5013232;28;20045;-66
2022/11/16 07:45:11;;;;;;;7.30;2.58;;;;;;;10.08;100.00;99937.22;5014842;28;20143;-66
2022/11/16 07:47:37;;;;;;;5.55;2.42;;;;;;;10.04;100.00;99936.72;5007133;28;20049;-66
2022/11/16 07:50:05;;;;;;;9.77;2.55;;;;;;;10.13;100.00;99944.56;5019169;28;20046;-65
2022/11/16 07:52:31;;;;;;;10.10;2.83;;;;;;;10.09;100.00;99950.16;5007126;28;20475;-65
2022/11/16 07:54:58;;;;;;;6.40;2.50;;;;;;;10.12;100.00;99956.88;5017009;28;20095;-66
2022/11/16 07:57:24;;;;;;;10.80;3.08;;;;;;;10.15;100.00;99961.75;5003865;28;20049;-65
2022/11/16 07:59:50;;;;;;;5.68;2.63;;;;;;;10.13;100.00;99963.72;5011822;28;20049;-65
2022/11/16 08:02:17;;;;;;;7.00;2.70;;;;;;;10.13;100.00;99968.16;5009241;28;20054;-65
2022/11/16 08:04:43;;;;;;;6.65;3.03;;;;;;;10.12;100.00;99967.34;5012513;28;20053;-65
2022/11/16 08:07:10;;;;;;;8.38;3.25;;;;;;;10.11;100.00;99965.69;5004950;28;20049;-65
2022/11/16 08:09:38;;;;;;;7.47;3.75;;;;;;;10.14;100.00;99972.44;5004449;28;20064;-65
2022/11/16 08:12:04;;;;;;;8.30;3.47;;;;;;;10.16;100.00;99968.66;5025613;28;20171;-65
2022/11/16 08:14:31;;;;;;;10.27;3.72;;;;;;;10.08;100.00;99973.91;5014576;28;20049;-64
2022/11/16 08:16:57;;;;;;;8.32;3.65;;;;;;;10.09;100.00;99972.91;5027392;28;20053;-65
2022/11/16 08:19:23;;;;;;;11.60;3.70;;;;;;;10.07;100.00;99969.63;5013068;28;20057;-65
2022/11/16 08:21:50;;;;;;;8.25;3.75;;;;;;;10.07;100.00;99983.56;5015770;28;20095;-65
2022/11/16 08:24:17;;;;;;;9.77;3.58;;;;;;;10.10;100.00;99982.41;5014873;28;20054;-65
2022/11/16 08:26:43;;;;;;;10.65;3.30;;;;;;;10.08;100.00;99977.31;5017784;28;20061;-65
2022/11/16 08:29:10;;;;;;;9.68;3.80;;;;;;;10.05;100.00;99979.44;5026026;28;20592;-65
2022/11/16 08:31:37;;;;;;;8.43;3.97;;;;;;;10.04;100.00;99988.31;5009885;28;20058;-65
2022/11/16 08:34:03;;;;;;;12.13;3.65;;;;;;;10.07;100.00;99986.19;5015833;28;20477;-65
2022/11/16 08:36:30;;;;;;;12.18;4.25;;;;;;;10.06;100.00;99979.28;5015286;28;20372;-65
2022/11/16 08:38:56;;;;;;;13.82;3.80;;;;;;;10.08;100.00;99990.44;5022224;28;20048;-66
2022/11/16 08:41:23;;;;;;;9.57;3.45;;;;;;;10.14;100.00;99985.53;5028996;28;20116;-65
2022/11/16 08:43:49;;;;;;;10.10;3.72;;;;;;;10.18;100.00;99989.47;5017351;28;20053;-65
2022/11/16 08:46:16;;;;;;;10.07;3.83;;;;;;;10.22;100.00;99988.16;5016251;28;20057;-66
2022/11/16 08:48:43;;;;;;;8.20;3.90;;;;;;;10.25;100.00;99986.03;5010561;28;20757;-65
2022/11/16 08:51:13;;;;;;;11.52;3.58;;;;;;;10.27;100.00;99991.91;5021625;28;20049;-65
2022/11/16 08:53:57;;;;;;;9.27;3.50;;;;;;;10.24;100.00;99992.22;5009409;28;20132;-66
2022/11/16 08:56:26;;;;;;;10.88;3.58;;;;;;;10.32;100.00;99990.63;5014741;28;20062;-65
2022/11/16 08:58:53;;;;;;;10.43;3.30;;;;;;;10.29;100.00;100002.25;5019648;28;20053;-66
2022/11/16 09:01:26;;;;;;;10.85;3.40;;;;;;;10.29;100.00;100010.09;5021713;28;20081;-65
2022/11/16 09:03:53;;;;;;;9.02;3.60;;;;;;;10.22;100.00;100006.50;5019137;28;20512;-66
2022/11/16 09:06:21;;;;;;;12.88;3.50;;;;;;;10.25;100.00;100009.59;5011854;28;20131;-66
2022/11/16 09:08:48;;;;;;;7.63;3.25;;;;;;;10.25;100.00;100009.59;5017425;28;20053;-66
2022/11/16 09:11:17;;;;;;;13.75;3.67;;;;;;;10.33;100.00;100018.47;5016283;28;20045;-65
2022/11/16 09:13:45;;;;;;;12.20;3.30;;;;;;;10.34;100.00;100007.00;5020895;28;20100;-65
2022/11/16 09:16:29;;;;;;;11.05;3.47;;;;;;;10.29;100.00;100013.53;5000299;28;20037;-65
2022/11/16 09:18:55;;;;;;;7.43;2.65;;;;;;;10.31;100.00;100008.16;5019025;28;20106;-65
2022/11/16 09:21:27;;;;;;;11.30;3.00;;;;;;;10.34;100.00;100007.00;5021850;28;20601;-65
2022/11/16 09:23:54;;;;;;;10.95;3.85;;;;;;;10.35;100.00;100012.09;5015787;28;20391;-65
2022/11/16 09:26:22;;;;;;;11.75;3.50;;;;;;;10.38;100.00;100017.00;5016214;28;20057;-65
2022/11/16 09:29:14;;;;;;;10.60;3.20;;;;;;;10.45;100.00;100017.16;5023745;28;20049;-65
2022/11/16 09:31:41;;;;;;;11.90;3.40;;;;;;;10.48;100.00;100016.81;5020662;28;20149;-65
2022/11/16 09:34:08;;;;;;;9.10;2.88;;;;;;;10.47;100.00;100020.44;5017670;28;20063;-67
2022/11/16 09:36:34;;;;;;;14.55;3.10;;;;;;;10.47;100.00;100016.00;5022593;28;20053;-65
2022/11/16 09:39:02;;;;;;;11.65;3.17;;;;;;;10.52;100.00;100026.00;5014710;28;20046;-65
2022/11/16 09:42:18;;;;;;;8.95;2.63;;;;;;;10.51;100.00;100020.94;5014059;28;20055;-65
2022/11/16 09:44:57;;;;;;;9.13;2.80;;;;;;;10.56;100.00;100022.06;5006825;28;20531;-65
2022/11/16 09:47:39;;;;;;;13.63;3.20;;;;;;;10.61;100.00;100019.75;5019672;28;20588;-65
2022/11/16 09:50:15;;;;;;;9.32;2.45;;;;;;;10.55;100.00;100023.06;5026375;28;20049;-65
2022/11/16 09:52:45;;;;;;;7.93;2.33;;;;;;;10.57;100.00;100021.09;5019704;28;20044;-65
2022/11/16 09:55:35;;;;;;;18.75;3.25;;;;;;;10.58;100.00;100022.72;5016715;28;20751;-65
2022/11/16 09:58:10;;;;;;;7.30;2.45;;;;;;;10.66;100.00;100022.72;5003411;28;20076;-64
2022/11/16 10:00:40;;;;;;;9.20;2.47;;;;;;;10.66;100.00;100022.72;5012592;28;20045;-65
2022/11/16 10:03:14;;;;;;;9.38;2.58;;;;;;;10.66;100.00;100021.88;5014659;28;20140;-65
2022/11/16 10:06:14;;;;;;;5.85;2.20;;;;;;;10.77;100.00;100018.09;5015807;28;20053;-65
2022/11/16 10:08:46;;;;;;;7.57;2.58;;;;;;;10.80;100.00;100025.63;5009151;28;20103;-65
2022/11/16 10:11:30;;;;;;;10.93;2.63;;;;;;;10.81;100.00;100022.03;5010655;28;20111;-65
2022/11/16 10:14:21;;;;;;;9.43;2.40;;;;;;;10.92;100.00;100019.06;5004328;28;20107;-64
2022/11/16 10:17:13;;;;;;;14.18;2.75;;;;;;;10.94;100.00;100021.50;5009965;28;20133;-65
2022/11/16 10:20:24;;;;;;;10.60;2.53;;;;;;;10.95;100.00;100017.88;5001122;28;20056;-64
2022/11/16 10:23:02;;;;;;;11.75;2.30;;;;;;;11.02;100.00;100026.75;5012030;28;20053;-65
2022/11/16 10:25:40;;;;;;;13.25;2.67;;;;;;;11.02;100.00;100018.88;5005885;28;20057;-65
2022/11/16 10:28:25;;;;;;;12.55;2.35;;;;;;;11.05;100.00;100026.38;5014906;28;20464;-65
2022/11/16 10:31:40;;;;;;;10.88;1.92;;;;;;;11.14;100.00;100021.94;5008915;28;20092;-66
2022/11/16 10:34:14;;;;;;;8.57;2.00;;;;;;;11.11;100.00;100030.13;5019947;28;20489;-65
2022/11/16 10:36:41;;;;;;;8.93;1.90;;;;;;;11.12;100.00;100024.72;5013223;28;20053;-66
2022/11/16 10:39:15;;;;;;;14.05;2.33;;;;;;;11.21;100.00;100028.97;5017858;28;20770;-66
2022/11/16 10:41:47;;;;;;;11.43;2.50;;;;;;;11.30;100.00;100028.94;5015390;28;20080;-65
2022/11/16 10:44:37;;;;;;;8.15;2.17;;;;;;;11.29;100.00;100028.13;5010118;28;20058;-65
2022/11/16 10:47:20;;;;;;;10.90;1.92;;;;;;;11.34;100.00;100028.41;5017507;28;20049;-66
2022/11/16 10:50:26;;;;;;;12.25;2.38;;;;;;;11.37;100.00;100033.34;5013725;28;20104;-66
2022/11/16 10:52:53;;;;;;;10.77;1.95;;;;;;;11.46;100.00;100021.78;5029027;28;20128;-67
2022/11/16 10:55:21;;;;;;;10.23;2.00;;;;;;;11.53;100.00;100018.50;5022299;28;20053;-65
2022/11/16 10:58:04;;;;;;;10.00;2.22;;;;;;;11.56;100.00;100018.94;5025799;28;20053;-65
2022/11/16 11:00:40;;;;;;;6.35;2.15;;;;;;;11.70;100.00;100019.22;5015858;28;20064;-66
2022/11/16 11:03:09;;;;;;;11.57;2.22;;;;;;;11.67;100.00;100023.00;5025112;28;20136;-66
2022/11/16 11:05:36;;;;;;;;;;;;;;;11.76;100.00;100008.00;5019898;28;20482;-65
2022/11/16 11:08:10;;;;;;;7.00;2.00;;;;;;;11.84;100.00;100011.41;5012679;28;20738;-65
2022/11/16 11:10:39;;;;;;;10.00;2.53;;;;;;;11.83;100.00;100019.47;5018317;28;20054;-65
2022/11/16 11:13:11;;;;;;;8.85;2.10;;;;;;;11.84;100.00;100007.97;5014856;28;20050;-65
2022/11/16 11:15:39;;;;;;;9.07;2.20;;;;;;;12.03;100.00;100004.06;5021900;28;20127;-64
2022/11/16 11:18:20;;;;;;;12.98;2.78;;;;;;;12.06;100.00;100016.88;5019918;28;20048;-65
2022/11/16 11:20:51;;;;;;;7.63;2.35;;;;;;;12.04;100.00;100010.97;5014627;28;20053;-65
2022/11/16 11:23:20;;;;;;;8.57;2.45;;;;;;;12.06;100.00;99999.28;5007229;28;20127;-65
2022/11/16 11:25:51;;;;;;;7.50;2.75;;;;;;;12.21;100.00;99993.25;5015146;28;20052;-65
2022/11/16 11:28:23;;;;;;;6.97;2.13;;;;;;;12.19;100.00;99990.81;5024468;28;20112;-65
2022/11/16 11:30:56;;;;;;;8.45;2.40;;;;;;;12.31;100.00;99993.84;5010349;28;20057;-65
2022/11/16 11:33:26;;;;;;;8.93;2.72;;;;;;;12.34;100.00;99988.22;5021977;28;20087;-65
2022/11/16 11:36:06;;;;;;;7.65;2.38;;;;;;;12.46;100.00;99993.84;5015498;28;20182;-65
2022/11/16 11:38:34;;;;;;;9.73;2.40;;;;;;;12.54;100.00;99992.97;5020130;28;20077;-65
2022/11/16 11:41:04;;;;;;;7.65;2.05;;;;;;;12.65;100.00;99993.34;5016086;28;20099;-65
2022/11/16 11:43:32;;;;;;;7.78;1.63;;;;;;;12.70;100.00;99989.34;5020341;28;20050;-65
2022/11/16 11:46:14;;;;;;;11.43;2.80;;;;;;;12.73;100.00;99979.28;5012504;28;20052;-65
2022/11/16 11:48:50;;;;;;;7.15;2.08;;;;;;;12.89;100.00;99972.22;5020836;28;20114;-65
2022/11/16 11:51:32;;;;;;;10.45;2.03;;;;;;;12.86;100.00;99982.09;5010820;28;20057;-65
2022/11/16 11:54:01;;;;;;;8.32;2.20;;;;;;;12.88;100.00;99974.03;5011235;28;20049;-65
2022/11/16 11:56:30;;;;;;;9.80;1.83;;;;;;;12.89;100.00;99969.56;5016156;28;20050;-66
2022/11/16 11:58:57;;;;;;;10.63;1.75;;;;;;;12.89;100.00;99966.94;5019924;28;20112;-65
2022/11/16 12:01:39;;;;;;;10.65;2.88;;;;;;;13.06;100.00;99966.56;5028107;28;20057;-65
2022/11/16 12:04:27;;;;;;;10.65;2.45;;;;;;;13.11;100.00;99970.47;5011969;28;20489;-66
2022/11/16 12:07:19;;;;;;;7.75;1.70;;;;;;;13.19;100.00;99959.81;5013175;28;20053;-65
2022/11/16 12:09:53;;;;;;;5.60;1.90;;;;;;;13.27;100.00;99957.09;5017184;28;20128;-66
2022/11/16 12:12:41;;;;;;;6.32;1.60;;;;;;;13.32;100.00;99972.38;5025583;28;20499;-70
2022/11/16 12:15:51;;;;;;;6.72;1.40;;;;;;;13.14;100.00;99970.09;5019792;28;20126;-66
2022/11/16 12:18:42;;;;;;;9.07;1.65;;;;;;;13.06;100.00;99976.28;5012516;28;20057;-65
2022/11/16 12:21:16;;;;;;;8.77;1.98;;;;;;;13.00;100.00;99969.94;5026891;28;20096;-65
2022/11/16 12:24:07;;;;;;;9.98;2.63;;;;;;;13.14;100.00;99965.66;5030613;28;20036;-66
2022/11/16 12:26:55;;;;;;;7.50;1.70;;;;;;;13.18;100.00;99964.28;5015122;28;20122;-66
2022/11/16 12:29:33;;;;;;;5.75;1.75;;;;;;;12.99;100.00;99963.03;5027995;28;20060;-65